createdAt,value
2022-09-02T00:00:13.662Z,1.10
2022-09-02T00:01:11.241Z,1.10
2022-09-02T00:02:11.367Z,0.90
2022-09-02T00:03:11.344Z,0.90
2022-09-02T00:04:11.244Z,1.10
2022-09-02T00:05:11.237Z,1.00
2022-09-02T00:06:11.222Z,0.90
2022-09-02T00:07:11.245Z,1.10
2022-09-02T00:08:11.195Z,0.90
2022-09-02T00:09:11.333Z,1.00
2022-09-02T00:10:11.282Z,1.00
2022-09-02T00:11:11.237Z,0.90
2022-09-02T00:12:11.172Z,1.00
2022-09-02T00:13:11.157Z,0.80
2022-09-02T00:14:11.145Z,1.00
2022-09-02T00:15:11.170Z,0.90
2022-09-02T00:16:11.286Z,0.90
2022-09-02T00:17:11.139Z,0.90
2022-09-02T00:18:15.506Z,0.80
2022-09-02T00:19:12.158Z,1.00
2022-09-02T00:20:11.141Z,1.00
2022-09-02T00:21:11.129Z,1.00
2022-09-02T00:22:11.110Z,1.10
2022-09-02T00:23:11.097Z,0.80
2022-09-02T00:24:11.083Z,0.80
2022-09-02T00:25:11.096Z,0.90
2022-09-02T00:26:11.077Z,1.00
2022-09-02T00:27:11.070Z,0.90
2022-09-02T00:28:11.042Z,1.20
2022-09-02T00:29:11.058Z,0.80
2022-09-02T00:30:11.048Z,1.20
2022-09-02T00:31:12.054Z,1.10
2022-09-02T00:32:11.070Z,0.90
2022-09-02T00:33:11.020Z,0.90
2022-09-02T00:34:11.031Z,1.10
2022-09-02T00:35:11.046Z,1.00
2022-09-02T00:36:11.011Z,0.90
2022-09-02T00:37:11.009Z,0.90
2022-09-02T00:38:10.987Z,0.90
2022-09-02T00:39:10.988Z,0.90
2022-09-02T00:40:11.051Z,1.00
2022-09-02T00:41:10.974Z,0.70
2022-09-02T00:42:10.985Z,0.80
2022-09-02T00:43:10.935Z,0.80
2022-09-02T00:44:10.990Z,0.90
2022-09-02T00:45:10.927Z,0.80
2022-09-02T00:46:10.978Z,0.90
2022-09-02T00:47:10.983Z,0.70
2022-09-02T00:48:10.938Z,0.80
2022-09-02T00:49:10.934Z,0.90
2022-09-02T00:50:10.924Z,0.90
2022-09-02T00:51:10.886Z,0.70
2022-09-02T00:52:10.927Z,0.90
2022-09-02T00:53:10.868Z,0.90
2022-09-02T00:54:10.866Z,0.90
2022-09-02T00:55:10.908Z,0.90
2022-09-02T00:56:10.875Z,0.90
2022-09-02T00:57:10.847Z,0.80
2022-09-02T00:58:10.847Z,0.90
2022-09-02T00:59:10.845Z,0.70
2022-09-02T01:00:10.857Z,0.90
2022-09-02T01:01:10.976Z,1.00
2022-09-02T01:02:10.929Z,0.80
2022-09-02T01:03:10.822Z,0.90
2022-09-02T01:04:10.813Z,1.00
2022-09-02T01:05:10.818Z,1.10
2022-09-02T01:06:10.839Z,0.80
2022-09-02T01:07:10.787Z,1.00
2022-09-02T01:08:10.790Z,0.70
2022-09-02T01:09:10.763Z,0.80
2022-09-02T01:10:10.765Z,1.00
2022-09-02T01:11:10.788Z,1.20
2022-09-02T01:12:10.765Z,1.00
2022-09-02T01:13:10.737Z,0.90
2022-09-02T01:14:10.768Z,1.10
2022-09-02T01:15:10.725Z,0.90
2022-09-02T01:16:10.873Z,0.90
2022-09-02T01:17:10.700Z,1.10
2022-09-02T01:18:10.704Z,0.80
2022-09-02T01:19:10.712Z,1.10
2022-09-02T01:20:10.685Z,1.00
2022-09-02T01:21:10.695Z,1.00
2022-09-02T01:22:10.652Z,0.90
2022-09-02T01:23:10.659Z,1.00
2022-09-02T01:24:10.663Z,0.80
2022-09-02T01:25:10.659Z,0.80
2022-09-02T01:26:10.809Z,1.00
2022-09-02T01:27:10.639Z,1.00
2022-09-02T01:28:10.622Z,0.90
2022-09-02T01:29:10.630Z,0.80
2022-09-02T01:30:10.623Z,0.80
2022-09-02T01:31:10.665Z,1.00
2022-09-02T01:32:10.618Z,0.90
2022-09-02T01:33:10.593Z,1.00
2022-09-02T01:34:10.591Z,0.90
2022-09-02T01:35:10.603Z,0.90
2022-09-02T01:36:10.607Z,1.00
2022-09-02T01:37:10.565Z,0.90
2022-09-02T01:38:10.583Z,0.90
2022-09-02T01:39:10.557Z,0.80
2022-09-02T01:40:10.607Z,0.80
2022-09-02T01:41:10.556Z,1.00
2022-09-02T01:42:10.540Z,1.00
2022-09-02T01:43:10.550Z,0.80
2022-09-02T01:44:10.533Z,0.80
2022-09-02T01:45:10.574Z,0.70
2022-09-02T01:46:10.564Z,0.90
2022-09-02T01:47:10.500Z,0.90
2022-09-02T01:48:10.517Z,0.80
2022-09-02T01:49:10.494Z,1.20
2022-09-02T01:50:10.472Z,0.90
2022-09-02T01:51:11.502Z,0.90
2022-09-02T01:52:10.456Z,1.20
2022-09-02T01:53:10.547Z,0.90
2022-09-02T01:54:10.470Z,0.90
2022-09-02T01:55:10.466Z,1.00
2022-09-02T01:56:10.448Z,0.90
2022-09-02T01:57:10.535Z,0.90
2022-09-02T01:58:10.525Z,0.90
2022-09-02T01:59:10.415Z,0.80
2022-09-02T02:00:10.410Z,1.10
2022-09-02T02:01:10.445Z,0.70
2022-09-02T02:02:10.487Z,0.80
2022-09-02T02:03:10.481Z,0.90
2022-09-02T02:04:13.457Z,0.90
2022-09-02T02:05:11.402Z,0.90
2022-09-02T02:06:10.396Z,0.90
2022-09-02T02:07:10.386Z,1.20
2022-09-02T02:08:10.382Z,0.90
2022-09-02T02:09:10.353Z,0.90
2022-09-02T02:10:10.343Z,0.80
2022-09-02T02:11:10.348Z,0.80
2022-09-02T02:12:10.344Z,0.90
2022-09-02T02:13:10.338Z,0.90
2022-09-02T02:14:10.300Z,1.00
2022-09-02T02:15:10.317Z,0.80
2022-09-02T02:16:10.300Z,0.80
2022-09-02T02:17:10.287Z,0.90
2022-09-02T02:18:10.281Z,1.00
2022-09-02T02:19:10.258Z,1.00
2022-09-02T02:20:10.282Z,0.90
2022-09-02T02:21:10.275Z,0.90
2022-09-02T02:22:10.242Z,0.80
2022-09-02T02:23:10.290Z,0.90
2022-09-02T02:24:10.253Z,0.70
2022-09-02T02:25:10.254Z,0.90
2022-09-02T02:26:10.209Z,1.10
2022-09-02T02:27:10.207Z,0.90
2022-09-02T02:28:10.199Z,0.90
2022-09-02T02:29:10.336Z,0.80
2022-09-02T02:30:10.185Z,0.70
2022-09-02T02:31:10.255Z,0.90
2022-09-02T02:32:10.179Z,0.90
2022-09-02T02:33:10.201Z,0.80
2022-09-02T02:34:10.184Z,0.90
2022-09-02T02:35:10.190Z,0.90
2022-09-02T02:36:10.175Z,0.90
2022-09-02T02:37:10.141Z,1.10
2022-09-02T02:38:10.143Z,0.90
2022-09-02T02:39:10.142Z,0.90
2022-09-02T02:40:10.207Z,1.00
2022-09-02T02:41:10.120Z,0.80
2022-09-02T02:42:10.104Z,0.90
2022-09-02T02:43:10.123Z,1.00
2022-09-02T02:44:10.114Z,0.80
2022-09-02T02:45:10.102Z,0.80
2022-09-02T02:46:11.145Z,1.10
2022-09-02T02:47:10.088Z,1.00
2022-09-02T02:48:10.077Z,0.80
2022-09-02T02:49:10.055Z,1.00
2022-09-02T02:50:10.037Z,0.90
2022-09-02T02:51:10.083Z,0.70
2022-09-02T02:52:10.043Z,0.80
2022-09-02T02:53:10.027Z,1.00
2022-09-02T02:54:10.047Z,0.80
2022-09-02T02:55:10.007Z,0.80
2022-09-02T02:56:10.022Z,0.90
2022-09-02T02:57:09.991Z,1.00
2022-09-02T02:58:09.979Z,0.90
2022-09-02T02:59:10.003Z,1.10
2022-09-02T03:00:09.975Z,1.00
2022-09-02T03:01:10.052Z,1.00
2022-09-02T03:02:10.024Z,1.00
2022-09-02T03:03:10.050Z,1.20
2022-09-02T03:04:09.992Z,0.80
2022-09-02T03:05:09.949Z,0.90
2022-09-02T03:06:09.946Z,0.80
2022-09-02T03:07:09.947Z,0.80
2022-09-02T03:08:09.924Z,0.90
2022-09-02T03:09:09.938Z,1.00
2022-09-02T03:10:09.902Z,0.90
2022-09-02T03:11:09.898Z,0.90
2022-09-02T03:12:09.910Z,0.90
2022-09-02T03:13:09.884Z,0.80
2022-09-02T03:14:09.897Z,0.90
2022-09-02T03:15:09.899Z,0.80
2022-09-02T03:16:09.931Z,0.80
2022-09-02T03:17:09.867Z,0.90
2022-09-02T03:18:09.845Z,0.80
2022-09-02T03:19:09.846Z,1.00
2022-09-02T03:20:09.854Z,1.00
2022-09-02T03:21:09.828Z,0.90
2022-09-02T03:22:09.910Z,1.00
2022-09-02T03:23:09.839Z,1.00
2022-09-02T03:24:09.793Z,1.10
2022-09-02T03:25:09.788Z,0.90
2022-09-02T03:26:09.805Z,0.90
2022-09-02T03:27:09.820Z,0.90
2022-09-02T03:28:09.783Z,0.90
2022-09-02T03:29:09.745Z,1.50
2022-09-02T03:30:09.750Z,1.00
2022-09-02T03:31:09.810Z,1.00
2022-09-02T03:32:09.763Z,1.10
2022-09-02T03:33:09.870Z,0.90
2022-09-02T03:34:09.729Z,1.00
2022-09-02T03:35:09.721Z,0.80
2022-09-02T03:36:09.750Z,1.00
2022-09-02T03:37:09.718Z,0.80
2022-09-02T03:38:09.742Z,0.90
2022-09-02T03:39:09.861Z,0.80
2022-09-02T03:40:09.724Z,1.00
2022-09-02T03:41:09.676Z,1.00
2022-09-02T03:42:17.469Z,1.10
2022-09-02T03:43:10.729Z,0.80
2022-09-02T03:44:09.697Z,0.90
2022-09-02T03:45:09.700Z,0.90
2022-09-02T03:46:09.694Z,0.90
2022-09-02T03:47:09.662Z,1.00
2022-09-02T03:48:09.645Z,0.90
2022-09-02T03:49:09.637Z,0.80
2022-09-02T03:50:09.621Z,0.80
2022-09-02T03:51:09.633Z,0.90
2022-09-02T03:52:09.622Z,1.00
2022-09-02T03:53:09.628Z,0.90
2022-09-02T03:54:10.594Z,1.00
2022-09-02T03:55:09.606Z,1.00
2022-09-02T03:56:09.615Z,0.80
2022-09-02T03:57:09.629Z,0.90
2022-09-02T03:58:09.567Z,1.00
2022-09-02T03:59:09.586Z,0.80
2022-09-02T04:00:09.559Z,1.10
2022-09-02T04:01:09.539Z,0.90
2022-09-02T04:02:09.634Z,1.00
2022-09-02T04:03:09.598Z,1.00
2022-09-02T04:04:09.560Z,1.10
2022-09-02T04:05:11.850Z,0.90
2022-09-02T04:06:10.521Z,1.20
2022-09-02T04:07:09.508Z,1.10
2022-09-02T04:08:09.513Z,1.00
2022-09-02T04:09:09.491Z,0.90
2022-09-02T04:10:09.522Z,1.00
2022-09-02T04:11:09.475Z,1.00
2022-09-02T04:12:09.481Z,1.20
2022-09-02T04:13:09.498Z,1.30
2022-09-02T04:14:09.492Z,1.10
2022-09-02T04:15:09.475Z,1.50
2022-09-02T04:16:10.616Z,1.10
2022-09-02T04:17:09.435Z,0.90
2022-09-02T04:18:09.433Z,1.30
2022-09-02T04:19:09.426Z,1.00
2022-09-02T04:20:09.416Z,1.20
2022-09-02T04:21:09.422Z,1.00
2022-09-02T04:22:09.432Z,0.90
2022-09-02T04:23:09.430Z,1.10
2022-09-02T04:24:09.404Z,0.80
2022-09-02T04:25:09.368Z,1.30
2022-09-02T04:26:09.365Z,1.20
2022-09-02T04:27:09.361Z,1.20
2022-09-02T04:28:09.397Z,1.00
2022-09-02T04:29:09.396Z,1.10
2022-09-02T04:30:09.350Z,1.10
2022-09-02T04:31:09.386Z,1.20
2022-09-02T04:32:09.361Z,1.10
2022-09-02T04:33:09.343Z,1.10
2022-09-02T04:34:09.318Z,1.20
2022-09-02T04:35:09.330Z,1.10
2022-09-02T04:36:09.278Z,0.90
2022-09-02T04:37:09.332Z,1.20
2022-09-02T04:38:09.264Z,1.00
2022-09-02T04:39:09.340Z,1.20
2022-09-02T04:40:09.338Z,1.10
2022-09-02T04:41:09.256Z,1.30
2022-09-02T04:42:09.266Z,1.00
2022-09-02T04:43:09.232Z,1.10
2022-09-02T04:44:09.289Z,1.20
2022-09-02T04:45:09.234Z,1.20
2022-09-02T04:46:09.279Z,1.10
2022-09-02T04:47:09.206Z,1.00
2022-09-02T04:48:09.200Z,1.10
2022-09-02T04:49:09.222Z,1.00
2022-09-02T04:50:09.201Z,1.10
2022-09-02T04:51:09.257Z,1.20
2022-09-02T04:52:09.164Z,1.40
2022-09-02T04:53:09.167Z,1.10
2022-09-02T04:54:09.226Z,1.20
2022-09-02T04:55:09.186Z,0.90
2022-09-02T04:56:09.169Z,1.20
2022-09-02T04:57:09.176Z,1.20
2022-09-02T04:58:09.122Z,1.10
2022-09-02T04:59:09.136Z,1.10
2022-09-02T05:00:09.123Z,1.10
2022-09-02T05:01:09.147Z,1.10
2022-09-02T05:02:09.229Z,1.10
2022-09-02T05:03:10.086Z,1.00
2022-09-02T05:04:09.153Z,1.10
2022-09-02T05:05:09.077Z,1.30
2022-09-02T05:06:09.061Z,1.10
2022-09-02T05:07:09.117Z,1.50
2022-09-02T05:08:09.109Z,1.10
2022-09-02T05:09:09.129Z,1.10
2022-09-02T05:10:09.052Z,1.20
2022-09-02T05:11:09.040Z,1.10
2022-09-02T05:12:09.053Z,1.10
2022-09-02T05:13:09.036Z,1.00
2022-09-02T05:14:09.042Z,1.20
2022-09-02T05:15:09.013Z,1.10
2022-09-02T05:16:09.062Z,1.10
2022-09-02T05:17:08.995Z,1.10
2022-09-02T05:18:09.039Z,1.40
2022-09-02T05:19:09.036Z,1.20
2022-09-02T05:20:08.972Z,1.10
2022-09-02T05:21:08.988Z,1.30
2022-09-02T05:22:08.974Z,1.00
2022-09-02T05:23:08.948Z,1.10
2022-09-02T05:24:08.986Z,1.30
2022-09-02T05:25:08.951Z,1.20
2022-09-02T05:26:08.964Z,1.30
2022-09-02T05:27:08.932Z,1.10
2022-09-02T05:28:08.953Z,1.10
2022-09-02T05:29:08.940Z,1.20
2022-09-02T05:30:08.911Z,1.20
2022-09-02T05:31:09.049Z,1.20
2022-09-02T05:32:08.883Z,1.00
2022-09-02T05:33:09.560Z,1.30
2022-09-02T05:34:08.907Z,1.20
2022-09-02T05:35:08.883Z,1.10
2022-09-02T05:36:08.950Z,1.30
2022-09-02T05:37:08.880Z,1.10
2022-09-02T05:38:08.875Z,1.10
2022-09-02T05:39:08.885Z,1.00
2022-09-02T05:40:08.953Z,1.10
2022-09-02T05:41:08.889Z,1.00
2022-09-02T05:42:08.853Z,1.10
2022-09-02T05:43:08.832Z,1.00
2022-09-02T05:44:08.921Z,1.10
2022-09-02T05:45:08.863Z,1.20
2022-09-02T05:46:08.905Z,1.00
2022-09-02T05:47:08.853Z,1.10
2022-09-02T05:48:08.810Z,1.40
2022-09-02T05:49:08.815Z,1.20
2022-09-02T05:50:08.777Z,1.10
2022-09-02T05:51:08.818Z,1.20
2022-09-02T05:52:08.798Z,1.30
2022-09-02T05:53:13.740Z,1.40
2022-09-02T05:54:10.747Z,1.20
2022-09-02T05:55:08.787Z,1.20
2022-09-02T05:56:08.840Z,1.20
2022-09-02T05:57:08.769Z,1.30
2022-09-02T05:58:08.729Z,1.00
2022-09-02T05:59:08.733Z,1.20
2022-09-02T06:00:08.715Z,1.30
2022-09-02T06:01:08.721Z,1.10
2022-09-02T06:02:08.742Z,1.20
2022-09-02T06:03:08.756Z,1.20
2022-09-02T06:04:08.710Z,1.20
2022-09-02T06:05:08.688Z,1.10
2022-09-02T06:06:08.683Z,1.30
2022-09-02T06:07:08.661Z,1.20
2022-09-02T06:08:08.646Z,1.40
2022-09-02T06:09:08.655Z,1.20
2022-09-02T06:10:08.723Z,1.30
2022-09-02T06:11:08.630Z,1.10
2022-09-02T06:12:08.631Z,1.40
2022-09-02T06:13:08.617Z,1.30
2022-09-02T06:14:08.627Z,1.30
2022-09-02T06:15:08.602Z,1.20
2022-09-02T06:16:08.697Z,1.40
2022-09-02T06:17:08.600Z,1.10
2022-09-02T06:18:08.602Z,1.10
2022-09-02T06:19:08.583Z,1.20
2022-09-02T06:20:08.595Z,1.20
2022-09-02T06:21:08.598Z,1.20
2022-09-02T06:22:08.677Z,1.10
2022-09-02T06:23:08.614Z,1.10
2022-09-02T06:24:08.595Z,1.30
2022-09-02T06:25:08.551Z,1.30
2022-09-02T06:26:08.570Z,1.10
2022-09-02T06:27:08.557Z,1.10
2022-09-02T06:28:08.532Z,1.10
2022-09-02T06:29:08.539Z,1.30
2022-09-02T06:30:08.545Z,1.30
2022-09-02T06:31:08.657Z,1.20
2022-09-02T06:32:08.586Z,1.10
2022-09-02T06:33:08.518Z,1.30
2022-09-02T06:34:08.534Z,1.20
2022-09-02T06:35:08.484Z,1.20
2022-09-02T06:36:08.492Z,1.50
2022-09-02T06:37:08.497Z,1.30
2022-09-02T06:38:08.511Z,1.30
2022-09-02T06:39:08.471Z,1.20
2022-09-02T06:40:08.492Z,1.30
2022-09-02T06:41:08.483Z,1.00
2022-09-02T06:42:08.492Z,1.20
2022-09-02T06:43:08.452Z,1.00
2022-09-02T06:44:08.481Z,1.40
2022-09-02T06:45:08.454Z,1.20
2022-09-02T06:46:08.567Z,1.30
2022-09-02T06:47:08.455Z,1.50
2022-09-02T06:48:08.408Z,1.40
2022-09-02T06:49:08.430Z,1.10
2022-09-02T06:50:08.430Z,1.30
2022-09-02T06:51:08.401Z,1.20
2022-09-02T06:52:08.384Z,1.40
2022-09-02T06:53:08.366Z,1.30
2022-09-02T06:54:08.430Z,1.30
2022-09-02T06:55:08.427Z,1.30
2022-09-02T06:56:08.330Z,1.10
2022-09-02T06:57:09.339Z,1.30
2022-09-02T06:58:08.360Z,1.30
2022-09-02T06:59:08.344Z,1.30
2022-09-02T07:00:08.359Z,1.20
2022-09-02T07:01:08.363Z,1.20
2022-09-02T07:02:08.512Z,1.30
2022-09-02T07:03:08.317Z,1.60
2022-09-02T07:04:08.323Z,1.10
2022-09-02T07:05:08.310Z,1.20
2022-09-02T07:06:08.290Z,1.20
2022-09-02T07:07:08.305Z,1.10
2022-09-02T07:08:08.313Z,1.30
2022-09-02T07:09:08.278Z,1.00
2022-09-02T07:10:08.291Z,1.20
2022-09-02T07:11:08.245Z,1.30
2022-09-02T07:12:08.241Z,1.40
2022-09-02T07:13:08.330Z,1.30
2022-09-02T07:14:08.290Z,1.40
2022-09-02T07:15:09.226Z,1.20
2022-09-02T07:16:08.297Z,1.30
2022-09-02T07:17:08.293Z,1.30
2022-09-02T07:18:08.186Z,1.30
2022-09-02T07:19:13.152Z,1.30
2022-09-02T07:20:10.184Z,1.30
2022-09-02T07:21:08.186Z,1.20
2022-09-02T07:22:08.195Z,1.50
2022-09-02T07:23:08.211Z,1.10
2022-09-02T07:24:08.196Z,1.30
2022-09-02T07:25:08.172Z,1.20
2022-09-02T07:26:08.178Z,1.10
2022-09-02T07:27:08.171Z,1.10
2022-09-02T07:28:08.159Z,1.30
2022-09-02T07:29:08.124Z,1.40
2022-09-02T07:30:08.129Z,1.30
2022-09-02T07:31:08.199Z,1.50
2022-09-02T07:32:08.165Z,1.00
2022-09-02T07:33:08.104Z,1.30
2022-09-02T07:34:08.126Z,1.50
2022-09-02T07:35:08.144Z,1.40
2022-09-02T07:36:11.516Z,1.60
2022-09-02T07:37:10.824Z,1.20
2022-09-02T07:38:09.101Z,1.30
2022-09-02T07:39:08.126Z,1.50
2022-09-02T07:40:08.193Z,1.30
2022-09-02T07:41:08.061Z,1.10
2022-09-02T07:42:08.093Z,1.40
2022-09-02T07:43:08.190Z,1.30
2022-09-02T07:44:08.103Z,1.50
2022-09-02T07:45:08.039Z,1.40
2022-09-02T07:46:08.121Z,1.40
2022-09-02T07:47:08.027Z,1.50
2022-09-02T07:48:08.033Z,1.10
2022-09-02T07:49:09.333Z,1.20
2022-09-02T07:50:19.191Z,1.20
2022-09-02T07:51:10.059Z,1.20
2022-09-02T07:52:08.156Z,1.50
2022-09-02T07:53:07.988Z,1.30
2022-09-02T07:54:07.981Z,1.20
2022-09-02T07:55:12.596Z,1.30
2022-09-02T07:56:09.981Z,1.50
2022-09-02T07:57:07.990Z,1.30
2022-09-02T07:58:07.945Z,1.30
2022-09-02T07:59:07.960Z,1.40
2022-09-02T08:00:07.960Z,1.40
2022-09-02T08:01:08.089Z,1.50
2022-09-02T08:02:07.970Z,1.30
2022-09-02T08:04:08.925Z,1.30
2022-09-02T08:05:07.894Z,1.40
2022-09-02T08:06:07.929Z,1.30
2022-09-02T08:07:07.920Z,1.30
2022-09-02T08:08:07.927Z,1.40
2022-09-02T08:09:07.912Z,1.30
2022-09-02T08:10:07.872Z,1.60
2022-09-02T08:11:07.850Z,1.40
2022-09-02T08:12:07.906Z,1.30
2022-09-02T08:13:07.855Z,1.30
2022-09-02T08:14:07.868Z,1.60
2022-09-02T08:15:07.862Z,1.60
2022-09-02T08:16:07.864Z,1.40
2022-09-02T08:17:07.863Z,1.20
2022-09-02T08:18:08.566Z,1.40
2022-09-02T08:19:08.922Z,1.50
2022-09-02T08:20:11.815Z,1.90
2022-09-02T08:21:08.856Z,1.30
2022-09-02T08:22:07.835Z,1.50
2022-09-02T08:23:11.715Z,1.40
2022-09-02T08:24:09.799Z,1.80
2022-09-02T08:25:07.789Z,1.30
2022-09-02T08:26:07.791Z,1.40
2022-09-02T08:27:07.778Z,1.50
2022-09-02T08:28:08.035Z,1.40
2022-09-02T08:29:07.786Z,1.30
2022-09-02T08:30:07.736Z,1.70
2022-09-02T08:31:07.739Z,1.10
2022-09-02T08:32:07.787Z,1.40
2022-09-02T08:33:07.737Z,1.40
2022-09-02T08:34:07.756Z,1.80
2022-09-02T08:35:07.729Z,1.30
2022-09-02T08:36:07.751Z,1.30
2022-09-02T08:37:07.707Z,1.30
2022-09-02T08:38:07.693Z,1.50
2022-09-02T08:39:07.699Z,1.80
2022-09-02T08:40:07.790Z,1.20
2022-09-02T08:41:07.697Z,1.80
2022-09-02T08:42:07.660Z,1.30
2022-09-02T08:43:07.646Z,1.60
2022-09-02T08:44:07.775Z,1.40
2022-09-02T08:45:07.671Z,1.70
2022-09-02T08:46:07.718Z,1.40
2022-09-02T08:47:07.702Z,1.70
2022-09-02T08:48:07.632Z,1.80
2022-09-02T08:49:07.633Z,1.50
2022-09-02T08:50:07.720Z,1.50
2022-09-02T08:51:07.645Z,1.70
2022-09-02T08:52:07.614Z,1.40
2022-09-02T08:53:07.593Z,1.40
2022-09-02T08:54:07.598Z,1.40
2022-09-02T08:55:07.582Z,1.70
2022-09-02T08:56:07.574Z,1.60
2022-09-02T08:57:07.591Z,1.30
2022-09-02T08:58:07.825Z,2.60
2022-09-02T08:59:07.572Z,1.40
2022-09-02T09:00:07.608Z,1.40
2022-09-02T09:01:07.591Z,1.60
2022-09-02T09:02:07.599Z,1.50
2022-09-02T09:03:07.591Z,1.50
2022-09-02T09:04:07.515Z,1.60
2022-09-02T09:05:07.535Z,1.50
2022-09-02T09:06:07.502Z,1.40
2022-09-02T09:07:07.670Z,1.50
2022-09-02T09:08:09.659Z,1.70
2022-09-02T09:09:08.507Z,1.40
2022-09-02T09:10:07.500Z,1.70
2022-09-02T09:11:07.494Z,1.50
2022-09-02T09:12:07.529Z,1.70
2022-09-02T09:13:07.503Z,1.60
2022-09-02T09:14:07.455Z,1.70
2022-09-02T09:15:07.482Z,1.40
2022-09-02T09:16:07.499Z,1.90
2022-09-02T09:17:07.492Z,1.50
2022-09-02T09:18:07.493Z,1.40
2022-09-02T09:19:08.836Z,1.60
2022-09-02T09:20:08.478Z,1.60
2022-09-02T09:21:07.598Z,1.30
2022-09-02T09:22:07.410Z,1.20
2022-09-02T09:23:07.539Z,1.70
2022-09-02T09:24:07.449Z,1.80
2022-09-02T09:25:07.479Z,1.40
2022-09-02T09:26:07.400Z,1.40
2022-09-02T09:27:07.486Z,1.40
2022-09-02T09:28:07.396Z,1.60
2022-09-02T09:29:07.424Z,1.70
2022-09-02T09:30:09.450Z,1.30
2022-09-02T09:31:08.450Z,1.30
2022-09-02T09:32:07.420Z,1.50
2022-09-02T09:33:07.327Z,1.70
2022-09-02T09:34:07.351Z,1.80
2022-09-02T09:35:07.377Z,1.60
2022-09-02T09:36:07.354Z,1.50
2022-09-02T09:37:07.308Z,1.50
2022-09-02T09:38:07.324Z,1.60
2022-09-02T09:39:07.321Z,1.40
2022-09-02T09:40:07.365Z,1.80
2022-09-02T09:41:07.312Z,1.40
2022-09-02T09:42:07.271Z,1.50
2022-09-02T09:43:14.785Z,1.50
2022-09-02T09:44:08.283Z,1.60
2022-09-02T09:45:07.295Z,1.50
2022-09-02T09:46:07.341Z,1.70
2022-09-02T09:47:07.238Z,1.70
2022-09-02T09:48:07.287Z,1.60
2022-09-02T09:49:07.298Z,1.60
2022-09-02T09:50:07.303Z,1.40
2022-09-02T09:51:07.254Z,1.80
2022-09-02T09:52:07.490Z,1.50
2022-09-02T09:53:07.253Z,1.60
2022-09-02T09:54:07.256Z,1.60
2022-09-02T09:55:07.281Z,1.50
2022-09-02T09:56:07.230Z,1.50
2022-09-02T09:57:07.237Z,1.40
2022-09-02T09:58:07.185Z,1.30
2022-09-02T09:59:07.159Z,1.30
2022-09-02T10:00:07.164Z,1.20
2022-09-02T10:01:07.253Z,1.30
2022-09-02T10:02:07.218Z,1.60
2022-09-02T10:03:08.124Z,1.40
2022-09-02T10:04:20.658Z,1.40
2022-09-02T10:05:09.148Z,1.40
2022-09-02T10:06:07.124Z,1.40
2022-09-02T10:07:07.170Z,1.20
2022-09-02T10:08:13.129Z,1.40
2022-09-02T10:09:08.092Z,1.30
2022-09-02T10:10:07.084Z,1.40
2022-09-02T10:11:07.081Z,1.30
2022-09-02T10:12:07.146Z,1.30
2022-09-02T10:13:07.167Z,1.20
2022-09-02T10:14:07.054Z,1.30
2022-09-02T10:15:07.049Z,1.20
2022-09-02T10:16:07.086Z,1.40
2022-09-02T10:17:07.045Z,1.30
2022-09-02T10:18:07.140Z,1.20
2022-09-02T10:19:07.005Z,1.40
2022-09-02T10:20:07.130Z,1.30
2022-09-02T10:21:14.929Z,1.30
2022-09-02T10:22:09.041Z,1.00
2022-09-02T10:23:07.097Z,1.30
2022-09-02T10:24:07.123Z,1.20
2022-09-02T10:25:06.983Z,1.30
2022-09-02T10:26:06.972Z,1.10
2022-09-02T10:27:06.948Z,1.30
2022-09-02T10:28:07.021Z,1.40
2022-09-02T10:29:06.980Z,1.50
2022-09-02T10:30:06.932Z,1.30
2022-09-02T10:31:06.976Z,1.50
2022-09-02T10:32:06.990Z,1.40
2022-09-02T10:33:06.905Z,1.30
2022-09-02T10:34:07.049Z,1.20
2022-09-02T10:35:07.014Z,1.10
2022-09-02T10:36:06.893Z,1.40
2022-09-02T10:37:06.908Z,1.20
2022-09-02T10:38:06.860Z,0.90
2022-09-02T10:39:06.896Z,1.10
2022-09-02T10:40:06.975Z,1.20
2022-09-02T10:41:06.890Z,1.40
2022-09-02T10:42:06.861Z,2.00
2022-09-02T10:43:07.074Z,1.40
2022-09-02T10:44:07.152Z,1.70
2022-09-02T10:45:06.834Z,1.40
2022-09-02T10:46:06.868Z,1.30
2022-09-02T10:47:06.910Z,1.30
2022-09-02T10:48:06.830Z,1.20
2022-09-02T10:49:06.840Z,1.60
2022-09-02T10:50:06.794Z,1.30
2022-09-02T10:51:06.781Z,1.30
2022-09-02T10:52:06.863Z,1.50
2022-09-02T10:53:09.370Z,1.60
2022-09-02T10:54:06.782Z,1.20
2022-09-02T10:55:06.810Z,1.20
2022-09-02T10:56:06.737Z,1.30
2022-09-02T10:57:06.794Z,1.30
2022-09-02T10:58:06.720Z,1.30
2022-09-02T10:59:07.863Z,1.40
2022-09-02T11:00:07.059Z,1.70
2022-09-02T11:01:06.796Z,1.60
2022-09-02T11:02:06.764Z,1.30
2022-09-02T11:03:06.753Z,1.50
2022-09-02T11:04:06.735Z,1.90
2022-09-02T11:05:06.672Z,1.50
2022-09-02T11:06:06.668Z,1.50
2022-09-02T11:07:06.707Z,1.40
2022-09-02T11:08:06.667Z,1.50
2022-09-02T11:09:06.766Z,1.60
2022-09-02T11:10:06.686Z,1.50
2022-09-02T11:11:06.644Z,1.40
2022-09-02T11:12:06.678Z,1.40
2022-09-02T11:13:06.656Z,1.90
2022-09-02T11:14:06.664Z,1.70
2022-09-02T11:15:06.635Z,1.60
2022-09-02T11:16:06.719Z,1.60
2022-09-02T11:17:06.711Z,1.30
2022-09-02T11:18:07.666Z,1.90
2022-09-02T11:19:06.683Z,1.70
2022-09-02T11:20:06.577Z,1.50
2022-09-02T11:21:07.570Z,1.50
2022-09-02T11:22:06.916Z,1.40
2022-09-02T11:23:06.574Z,1.20
2022-09-02T11:24:06.565Z,1.40
2022-09-02T11:25:06.593Z,1.20
2022-09-02T11:26:06.648Z,1.10
2022-09-02T11:27:25.476Z,1.40
2022-09-02T11:28:07.574Z,1.30
2022-09-02T11:29:06.537Z,1.80
2022-09-02T11:30:06.530Z,1.80
2022-09-02T11:31:06.805Z,2.00
2022-09-02T11:32:06.569Z,1.80
2022-09-02T11:33:06.549Z,1.60
2022-09-02T11:34:06.488Z,1.90
2022-09-02T11:35:06.489Z,2.00
2022-09-02T11:36:06.486Z,1.80
2022-09-02T11:37:06.515Z,1.70
2022-09-02T11:38:06.451Z,1.60
2022-09-02T11:39:06.455Z,1.80
2022-09-02T11:40:30.380Z,1.80
2022-09-02T11:42:08.529Z,1.50
2022-09-02T11:43:06.453Z,1.80
2022-09-02T11:44:06.406Z,1.40
2022-09-02T11:45:06.476Z,1.50
2022-09-02T11:46:06.489Z,1.30
2022-09-02T11:47:06.406Z,1.30
2022-09-02T11:48:06.388Z,1.80
2022-09-02T11:49:06.485Z,1.50
2022-09-02T11:50:06.408Z,1.80
2022-09-02T11:51:06.410Z,1.60
2022-09-02T11:52:06.416Z,1.70
2022-09-02T11:53:06.381Z,1.60
2022-09-02T11:54:06.363Z,1.50
2022-09-02T11:55:06.393Z,1.50
2022-09-02T11:56:06.365Z,1.50
2022-09-02T11:57:06.323Z,1.70
2022-09-02T11:58:06.365Z,1.60
2022-09-02T11:59:06.421Z,1.40
2022-09-02T12:00:06.341Z,1.50
2022-09-02T12:01:06.296Z,1.20
2022-09-02T12:02:06.304Z,1.20
2022-09-02T12:03:16.812Z,1.40
2022-09-02T12:05:08.898Z,1.00
2022-09-02T12:06:06.407Z,1.20
2022-09-02T12:07:08.618Z,1.30
2022-09-02T12:08:07.247Z,1.40
2022-09-02T12:09:06.279Z,1.20
2022-09-02T12:10:06.300Z,1.30
2022-09-02T12:11:06.259Z,1.30
2022-09-02T12:12:06.261Z,1.40
2022-09-02T12:13:08.088Z,1.60
2022-09-02T12:14:08.025Z,1.20
2022-09-02T12:15:06.526Z,1.40
2022-09-02T12:16:06.284Z,1.40
2022-09-02T12:17:06.226Z,1.40
2022-09-02T12:18:06.218Z,1.10
2022-09-02T12:19:06.365Z,1.70
2022-09-02T12:20:06.260Z,1.50
2022-09-02T12:21:06.285Z,1.30
2022-09-02T12:22:06.226Z,1.40
2022-09-02T12:23:06.161Z,1.50
2022-09-02T12:24:06.163Z,1.30
2022-09-02T12:25:06.681Z,1.40
2022-09-02T12:26:06.145Z,1.30
2022-09-02T12:27:06.137Z,1.50
2022-09-02T12:28:06.122Z,1.20
2022-09-02T12:29:06.150Z,1.20
2022-09-02T12:30:06.151Z,1.30
2022-09-02T12:31:06.166Z,1.40
2022-09-02T12:32:06.105Z,1.20
2022-09-02T12:33:06.118Z,1.30
2022-09-02T12:34:06.099Z,1.40
2022-09-02T12:35:06.099Z,1.30
2022-09-02T12:36:06.097Z,1.30
2022-09-02T12:37:06.055Z,1.30
2022-09-02T12:38:06.111Z,1.10
2022-09-02T12:39:09.373Z,1.50
2022-09-02T12:40:07.129Z,1.40
2022-09-02T12:41:07.694Z,1.20
2022-09-02T12:42:06.095Z,1.20
2022-09-02T12:43:06.064Z,1.10
2022-09-02T12:44:06.022Z,1.40
2022-09-02T12:45:06.067Z,1.20
2022-09-02T12:46:06.062Z,1.40
2022-09-02T12:47:06.097Z,1.30
2022-09-02T12:48:06.089Z,1.20
2022-09-02T12:49:05.991Z,1.10
2022-09-02T12:50:06.022Z,1.40
2022-09-02T12:51:05.997Z,1.20
2022-09-02T12:52:06.024Z,1.50
2022-09-02T12:53:06.004Z,1.10
2022-09-02T12:54:06.007Z,1.10
2022-09-02T12:55:06.005Z,1.20
2022-09-02T12:56:05.991Z,1.20
2022-09-02T12:57:05.964Z,1.10
2022-09-02T12:58:05.939Z,1.20
2022-09-02T12:59:05.963Z,1.30
2022-09-02T13:00:05.934Z,1.20
2022-09-02T13:01:05.956Z,1.50
2022-09-02T13:02:05.953Z,1.30
2022-09-02T13:03:05.920Z,1.10
2022-09-02T13:04:05.921Z,1.30
2022-09-02T13:05:05.925Z,1.30
2022-09-02T13:06:05.955Z,1.30
2022-09-02T13:07:05.971Z,1.40
2022-09-02T13:08:05.953Z,1.30
2022-09-02T13:09:05.949Z,1.30
2022-09-02T13:10:05.955Z,1.30
2022-09-02T13:11:05.871Z,1.30
2022-09-02T13:12:05.884Z,1.20
2022-09-02T13:13:05.891Z,1.40
2022-09-02T13:14:05.828Z,1.30
2022-09-02T13:15:05.841Z,1.00
2022-09-02T13:16:06.036Z,1.10
2022-09-02T13:17:25.795Z,1.30
2022-09-02T13:18:07.801Z,1.00
2022-09-02T13:19:05.935Z,1.20
2022-09-02T13:20:05.837Z,1.30
2022-09-02T13:21:05.797Z,1.40